sensor_id;sensor_type;location;lat;lon;timestamp;temperature;humidity
60868;DHT22;46702;48.370;10.794;2023-05-02T00:01:26;9.70;99.90
60868;DHT22;46702;48.370;10.794;2023-05-02T00:03:51;9.70;99.90
60868;DHT22;46702;48.370;10.794;2023-05-02T00:06:17;9.70;99.90
60868;DHT22;46702;48.370;10.794;2023-05-02T00:08:43;9.70;99.90
60868;DHT22;46702;48.370;10.794;2023-05-02T00:11:09;9.70;99.90
60868;DHT22;46702;48.370;10.794;2023-05-02T00:13:34;9.60;99.90
60868;DHT22;46702;48.370;10.794;2023-05-02T00:16:00;9.60;99.90
60868;DHT22;46702;48.370;10.794;2023-05-02T00:18:26;9.70;99.90
60868;DHT22;46702;48.370;10.794;2023-05-02T00:20:51;9.60;99.90
60868;DHT22;46702;48.370;10.794;2023-05-02T00:23:17;9.60;99.90
60868;DHT22;46702;48.370;10.794;2023-05-02T00:25:45;9.60;99.90
60868;DHT22;46702;48.370;10.794;2023-05-02T00:28:11;9.60;99.90
60868;DHT22;46702;48.370;10.794;2023-05-02T00:30:42;9.50;99.90
60868;DHT22;46702;48.370;10.794;2023-05-02T00:33:08;9.50;99.90
60868;DHT22;46702;48.370;10.794;2023-05-02T00:35:34;9.50;99.90
60868;DHT22;46702;48.370;10.794;2023-05-02T00:37:59;9.50;99.90
60868;DHT22;46702;48.370;10.794;2023-05-02T00:40:25;9.40;99.90
60868;DHT22;46702;48.370;10.794;2023-05-02T00:42:51;9.40;99.90
60868;DHT22;46702;48.370;10.794;2023-05-02T00:45:16;9.40;99.90
60868;DHT22;46702;48.370;10.794;2023-05-02T00:47:42;9.40;99.90
60868;DHT22;46702;48.370;10.794;2023-05-02T00:50:08;9.40;99.90
60868;DHT22;46702;48.370;10.794;2023-05-02T00:52:34;9.40;99.90
60868;DHT22;46702;48.370;10.794;2023-05-02T00:55:00;9.30;99.90
60868;DHT22;46702;48.370;10.794;2023-05-02T00:57:26;9.40;99.90
60868;DHT22;46702;48.370;10.794;2023-05-02T00:59:52;9.30;99.90
60868;DHT22;46702;48.370;10.794;2023-05-02T01:05:20;9.30;99.90
60868;DHT22;46702;48.370;10.794;2023-05-02T01:08:09;9.30;99.90
60868;DHT22;46702;48.370;10.794;2023-05-02T01:13:23;9.30;99.90
60868;DHT22;46702;48.370;10.794;2023-05-02T01:21:48;9.30;99.90
60868;DHT22;46702;48.370;10.794;2023-05-02T01:24:24;9.20;99.90
60868;DHT22;46702;48.370;10.794;2023-05-02T01:27:13;9.20;99.90
60868;DHT22;46702;48.370;10.794;2023-05-02T01:29:40;9.20;99.90
60868;DHT22;46702;48.370;10.794;2023-05-02T01:32:08;9.10;99.90
60868;DHT22;46702;48.370;10.794;2023-05-02T01:34:37;9.10;99.90
60868;DHT22;46702;48.370;10.794;2023-05-02T01:37:05;9.00;99.90
60868;DHT22;46702;48.370;10.794;2023-05-02T01:39:31;9.00;99.90
60868;DHT22;46702;48.370;10.794;2023-05-02T01:42:01;9.00;99.90
60868;DHT22;46702;48.370;10.794;2023-05-02T01:44:28;9.00;99.90
60868;DHT22;46702;48.370;10.794;2023-05-02T01:46:55;9.00;99.90
60868;DHT22;46702;48.370;10.794;2023-05-02T01:49:23;8.90;99.90
60868;DHT22;46702;48.370;10.794;2023-05-02T01:51:51;8.90;99.90
60868;DHT22;46702;48.370;10.794;2023-05-02T01:54:19;8.90;99.90
60868;DHT22;46702;48.370;10.794;2023-05-02T01:56:46;8.90;99.90
60868;DHT22;46702;48.370;10.794;2023-05-02T01:59:17;8.90;99.90
60868;DHT22;46702;48.370;10.794;2023-05-02T02:01:44;8.80;99.90
60868;DHT22;46702;48.370;10.794;2023-05-02T02:04:11;8.90;99.90
60868;DHT22;46702;48.370;10.794;2023-05-02T02:06:38;8.80;99.90
60868;DHT22;46702;48.370;10.794;2023-05-02T02:09:06;8.90;99.90
60868;DHT22;46702;48.370;10.794;2023-05-02T02:11:43;8.90;99.90
60868;DHT22;46702;48.370;10.794;2023-05-02T02:14:33;8.90;99.90
60868;DHT22;46702;48.370;10.794;2023-05-02T02:17:01;8.90;99.90
60868;DHT22;46702;48.370;10.794;2023-05-02T02:19:31;8.80;99.90
60868;DHT22;46702;48.370;10.794;2023-05-02T02:21:58;8.80;99.90
60868;DHT22;46702;48.370;10.794;2023-05-02T02:24:25;8.80;99.90
60868;DHT22;46702;48.370;10.794;2023-05-02T02:26:51;8.80;99.90
60868;DHT22;46702;48.370;10.794;2023-05-02T02:29:17;8.70;99.90
60868;DHT22;46702;48.370;10.794;2023-05-02T02:31:42;8.70;99.90
60868;DHT22;46702;48.370;10.794;2023-05-02T02:34:08;8.60;99.90
60868;DHT22;46702;48.370;10.794;2023-05-02T02:36:44;8.70;99.90
60868;DHT22;46702;48.370;10.794;2023-05-02T02:39:45;8.70;99.90
60868;DHT22;46702;48.370;10.794;2023-05-02T02:42:21;8.60;99.90
60868;DHT22;46702;48.370;10.794;2023-05-02T02:47:43;8.60;99.90
60868;DHT22;46702;48.370;10.794;2023-05-02T02:53:04;8.60;99.90
60868;DHT22;46702;48.370;10.794;2023-05-02T02:55:52;8.50;99.90
60868;DHT22;46702;48.370;10.794;2023-05-02T02:58:55;8.40;99.90
60868;DHT22;46702;48.370;10.794;2023-05-02T03:01:23;8.40;99.90
60868;DHT22;46702;48.370;10.794;2023-05-02T03:03:51;8.40;99.90
60868;DHT22;46702;48.370;10.794;2023-05-02T03:06:18;8.40;99.90
60868;DHT22;46702;48.370;10.794;2023-05-02T03:08:44;8.40;99.90
60868;DHT22;46702;48.370;10.794;2023-05-02T03:11:10;8.30;99.90
60868;DHT22;46702;48.370;10.794;2023-05-02T03:13:38;8.30;99.90
60868;DHT22;46702;48.370;10.794;2023-05-02T03:16:33;8.30;99.90
60868;DHT22;46702;48.370;10.794;2023-05-02T03:18:59;8.20;99.90
60868;DHT22;46702;48.370;10.794;2023-05-02T03:21:25;8.20;99.90
60868;DHT22;46702;48.370;10.794;2023-05-02T03:23:51;8.20;99.90
60868;DHT22;46702;48.370;10.794;2023-05-02T03:26:17;8.10;99.90
60868;DHT22;46702;48.370;10.794;2023-05-02T03:28:43;8.10;99.90
60868;DHT22;46702;48.370;10.794;2023-05-02T03:31:12;8.20;99.90
60868;DHT22;46702;48.370;10.794;2023-05-02T03:33:39;8.30;99.90
60868;DHT22;46702;48.370;10.794;2023-05-02T03:36:05;8.30;99.90
60868;DHT22;46702;48.370;10.794;2023-05-02T03:38:31;8.30;99.90
60868;DHT22;46702;48.370;10.794;2023-05-02T03:40:57;8.30;99.90
60868;DHT22;46702;48.370;10.794;2023-05-02T03:43:23;8.30;99.90
60868;DHT22;46702;48.370;10.794;2023-05-02T03:45:48;8.30;99.90
60868;DHT22;46702;48.370;10.794;2023-05-02T03:48:14;8.30;99.90
60868;DHT22;46702;48.370;10.794;2023-05-02T03:50:40;8.20;99.90
60868;DHT22;46702;48.370;10.794;2023-05-02T03:53:05;8.10;99.90
60868;DHT22;46702;48.370;10.794;2023-05-02T03:55:32;8.10;99.90
60868;DHT22;46702;48.370;10.794;2023-05-02T03:57:58;8.10;99.90
60868;DHT22;46702;48.370;10.794;2023-05-02T04:00:24;8.10;99.90
60868;DHT22;46702;48.370;10.794;2023-05-02T04:02:49;8.20;99.90
60868;DHT22;46702;48.370;10.794;2023-05-02T04:05:15;8.20;99.90
60868;DHT22;46702;48.370;10.794;2023-05-02T04:07:41;8.20;99.90
60868;DHT22;46702;48.370;10.794;2023-05-02T04:10:07;8.20;99.90
60868;DHT22;46702;48.370;10.794;2023-05-02T04:12:40;8.30;99.90
60868;DHT22;46702;48.370;10.794;2023-05-02T04:15:07;8.30;99.90
60868;DHT22;46702;48.370;10.794;2023-05-02T04:17:33;8.30;99.90
60868;DHT22;46702;48.370;10.794;2023-05-02T04:19:58;8.40;99.90
60868;DHT22;46702;48.370;10.794;2023-05-02T04:22:24;8.30;99.90
60868;DHT22;46702;48.370;10.794;2023-05-02T04:24:50;8.30;99.90
60868;DHT22;46702;48.370;10.794;2023-05-02T04:27:16;8.30;99.90
60868;DHT22;46702;48.370;10.794;2023-05-02T04:29:41;8.30;99.90
60868;DHT22;46702;48.370;10.794;2023-05-02T04:32:07;8.30;99.90
60868;DHT22;46702;48.370;10.794;2023-05-02T04:34:33;8.30;99.90
60868;DHT22;46702;48.370;10.794;2023-05-02T04:37:00;8.20;99.90
60868;DHT22;46702;48.370;10.794;2023-05-02T04:39:26;8.20;99.90
60868;DHT22;46702;48.370;10.794;2023-05-02T04:41:52;8.10;99.90
60868;DHT22;46702;48.370;10.794;2023-05-02T04:44:17;8.10;99.90
60868;DHT22;46702;48.370;10.794;2023-05-02T04:46:43;8.10;99.90
60868;DHT22;46702;48.370;10.794;2023-05-02T04:49:09;8.20;99.90
60868;DHT22;46702;48.370;10.794;2023-05-02T04:51:35;8.20;99.90
60868;DHT22;46702;48.370;10.794;2023-05-02T04:54:01;8.20;99.90
60868;DHT22;46702;48.370;10.794;2023-05-02T04:56:27;8.20;99.90
60868;DHT22;46702;48.370;10.794;2023-05-02T04:58:52;8.20;99.90
60868;DHT22;46702;48.370;10.794;2023-05-02T05:01:18;8.20;99.90
60868;DHT22;46702;48.370;10.794;2023-05-02T05:03:44;8.30;99.90
60868;DHT22;46702;48.370;10.794;2023-05-02T05:06:09;8.20;99.90
60868;DHT22;46702;48.370;10.794;2023-05-02T05:08:35;8.30;99.90
60868;DHT22;46702;48.370;10.794;2023-05-02T05:11:00;8.30;99.90
60868;DHT22;46702;48.370;10.794;2023-05-02T05:13:26;8.30;99.90
60868;DHT22;46702;48.370;10.794;2023-05-02T05:15:52;8.30;99.90
60868;DHT22;46702;48.370;10.794;2023-05-02T05:18:19;8.30;99.90
60868;DHT22;46702;48.370;10.794;2023-05-02T05:20:44;8.30;99.90
60868;DHT22;46702;48.370;10.794;2023-05-02T05:23:10;8.40;99.90
60868;DHT22;46702;48.370;10.794;2023-05-02T05:25:36;8.30;99.90
60868;DHT22;46702;48.370;10.794;2023-05-02T05:28:01;8.40;99.90
60868;DHT22;46702;48.370;10.794;2023-05-02T05:30:27;8.40;99.90
60868;DHT22;46702;48.370;10.794;2023-05-02T05:32:55;8.40;99.90
60868;DHT22;46702;48.370;10.794;2023-05-02T05:35:23;8.50;99.90
60868;DHT22;46702;48.370;10.794;2023-05-02T05:37:49;8.50;99.90
60868;DHT22;46702;48.370;10.794;2023-05-02T05:40:15;8.60;99.90
60868;DHT22;46702;48.370;10.794;2023-05-02T05:42:41;8.70;99.90
60868;DHT22;46702;48.370;10.794;2023-05-02T05:45:08;8.70;99.90
60868;DHT22;46702;48.370;10.794;2023-05-02T05:47:34;8.70;99.90
60868;DHT22;46702;48.370;10.794;2023-05-02T05:50:00;8.80;99.90
60868;DHT22;46702;48.370;10.794;2023-05-02T05:52:25;8.80;99.90
60868;DHT22;46702;48.370;10.794;2023-05-02T05:54:55;8.80;99.90
60868;DHT22;46702;48.370;10.794;2023-05-02T05:57:21;8.90;99.90
60868;DHT22;46702;48.370;10.794;2023-05-02T05:59:47;9.00;99.90
60868;DHT22;46702;48.370;10.794;2023-05-02T06:02:13;9.00;99.90
60868;DHT22;46702;48.370;10.794;2023-05-02T06:04:39;9.00;99.90
60868;DHT22;46702;48.370;10.794;2023-05-02T06:07:05;9.20;99.90
60868;DHT22;46702;48.370;10.794;2023-05-02T06:09:31;9.20;99.90
60868;DHT22;46702;48.370;10.794;2023-05-02T06:11:57;9.20;99.90
60868;DHT22;46702;48.370;10.794;2023-05-02T06:14:22;9.20;99.90
60868;DHT22;46702;48.370;10.794;2023-05-02T06:16:48;9.20;99.90
60868;DHT22;46702;48.370;10.794;2023-05-02T06:19:14;9.30;99.90
60868;DHT22;46702;48.370;10.794;2023-05-02T06:21:43;9.30;99.90
60868;DHT22;46702;48.370;10.794;2023-05-02T06:24:08;9.30;99.90
60868;DHT22;46702;48.370;10.794;2023-05-02T06:26:34;9.40;99.90
60868;DHT22;46702;48.370;10.794;2023-05-02T06:29:00;9.40;99.90
60868;DHT22;46702;48.370;10.794;2023-05-02T06:31:27;9.50;99.90
60868;DHT22;46702;48.370;10.794;2023-05-02T06:33:53;9.60;99.90
60868;DHT22;46702;48.370;10.794;2023-05-02T06:36:19;9.60;99.90
60868;DHT22;46702;48.370;10.794;2023-05-02T06:38:45;9.70;99.90
60868;DHT22;46702;48.370;10.794;2023-05-02T06:41:13;9.80;99.90
60868;DHT22;46702;48.370;10.794;2023-05-02T06:43:39;10.00;99.90
60868;DHT22;46702;48.370;10.794;2023-05-02T06:46:07;10.00;99.90
60868;DHT22;46702;48.370;10.794;2023-05-02T06:48:34;10.10;99.90
60868;DHT22;46702;48.370;10.794;2023-05-02T06:51:00;10.20;99.90
60868;DHT22;46702;48.370;10.794;2023-05-02T06:53:29;10.40;99.90
60868;DHT22;46702;48.370;10.794;2023-05-02T06:55:54;10.50;99.90
60868;DHT22;46702;48.370;10.794;2023-05-02T06:58:20;10.50;99.90
60868;DHT22;46702;48.370;10.794;2023-05-02T07:00:46;10.40;99.90
60868;DHT22;46702;48.370;10.794;2023-05-02T07:03:13;10.50;99.90
60868;DHT22;46702;48.370;10.794;2023-05-02T07:05:42;10.70;99.90
60868;DHT22;46702;48.370;10.794;2023-05-02T07:08:07;10.80;99.90
60868;DHT22;46702;48.370;10.794;2023-05-02T07:10:34;10.80;99.90
60868;DHT22;46702;48.370;10.794;2023-05-02T07:13:01;10.90;99.90
60868;DHT22;46702;48.370;10.794;2023-05-02T07:15:29;11.00;99.90
60868;DHT22;46702;48.370;10.794;2023-05-02T07:17:55;11.10;99.90
60868;DHT22;46702;48.370;10.794;2023-05-02T07:20:22;11.20;99.90
60868;DHT22;46702;48.370;10.794;2023-05-02T07:22:47;11.30;99.90
60868;DHT22;46702;48.370;10.794;2023-05-02T07:25:13;11.40;99.90
60868;DHT22;46702;48.370;10.794;2023-05-02T07:27:39;11.40;99.90
60868;DHT22;46702;48.370;10.794;2023-05-02T07:30:05;11.50;99.90
60868;DHT22;46702;48.370;10.794;2023-05-02T07:32:31;11.70;99.90
60868;DHT22;46702;48.370;10.794;2023-05-02T07:35:00;11.80;99.90
60868;DHT22;46702;48.370;10.794;2023-05-02T07:37:26;11.90;99.90
60868;DHT22;46702;48.370;10.794;2023-05-02T07:39:51;11.80;99.90
60868;DHT22;46702;48.370;10.794;2023-05-02T07:42:17;11.70;99.90
60868;DHT22;46702;48.370;10.794;2023-05-02T07:44:43;11.80;99.90
60868;DHT22;46702;48.370;10.794;2023-05-02T07:47:09;11.80;99.90
60868;DHT22;46702;48.370;10.794;2023-05-02T07:49:36;11.80;99.90
60868;DHT22;46702;48.370;10.794;2023-05-02T07:52:02;12.10;99.90
60868;DHT22;46702;48.370;10.794;2023-05-02T07:54:28;12.40;99.90
60868;DHT22;46702;48.370;10.794;2023-05-02T07:56:54;12.60;99.90
60868;DHT22;46702;48.370;10.794;2023-05-02T07:59:22;12.70;99.90
60868;DHT22;46702;48.370;10.794;2023-05-02T08:01:48;13.00;99.90
60868;DHT22;46702;48.370;10.794;2023-05-02T08:04:13;12.90;99.90
60868;DHT22;46702;48.370;10.794;2023-05-02T08:06:39;13.00;99.90
60868;DHT22;46702;48.370;10.794;2023-05-02T08:09:05;13.00;99.90
60868;DHT22;46702;48.370;10.794;2023-05-02T08:11:30;13.20;99.90
60868;DHT22;46702;48.370;10.794;2023-05-02T08:13:57;13.30;99.90
60868;DHT22;46702;48.370;10.794;2023-05-02T08:16:22;13.20;99.90
60868;DHT22;46702;48.370;10.794;2023-05-02T08:18:48;13.20;99.90
60868;DHT22;46702;48.370;10.794;2023-05-02T08:21:13;13.20;99.90
60868;DHT22;46702;48.370;10.794;2023-05-02T08:23:40;13.00;99.90
60868;DHT22;46702;48.370;10.794;2023-05-02T08:26:06;13.10;99.90
60868;DHT22;46702;48.370;10.794;2023-05-02T08:28:32;13.20;99.90
60868;DHT22;46702;48.370;10.794;2023-05-02T08:30:58;13.10;99.90
60868;DHT22;46702;48.370;10.794;2023-05-02T08:33:23;13.20;99.90
60868;DHT22;46702;48.370;10.794;2023-05-02T08:35:49;13.30;99.90
60868;DHT22;46702;48.370;10.794;2023-05-02T08:38:15;13.50;99.90
60868;DHT22;46702;48.370;10.794;2023-05-02T08:40:40;13.60;99.90
60868;DHT22;46702;48.370;10.794;2023-05-02T08:43:06;13.60;99.90
60868;DHT22;46702;48.370;10.794;2023-05-02T08:45:39;13.50;99.90
60868;DHT22;46702;48.370;10.794;2023-05-02T08:48:12;13.50;99.90
60868;DHT22;46702;48.370;10.794;2023-05-02T08:50:41;13.30;99.90
60868;DHT22;46702;48.370;10.794;2023-05-02T08:53:09;13.20;99.90
60868;DHT22;46702;48.370;10.794;2023-05-02T08:55:37;13.30;99.90
60868;DHT22;46702;48.370;10.794;2023-05-02T08:58:09;13.40;99.90
60868;DHT22;46702;48.370;10.794;2023-05-02T09:00:40;13.40;99.90
60868;DHT22;46702;48.370;10.794;2023-05-02T09:03:19;13.40;99.90
60868;DHT22;46702;48.370;10.794;2023-05-02T09:05:52;13.50;99.90
60868;DHT22;46702;48.370;10.794;2023-05-02T09:08:22;13.50;99.90
60868;DHT22;46702;48.370;10.794;2023-05-02T09:10:49;13.70;99.90
60868;DHT22;46702;48.370;10.794;2023-05-02T09:13:37;13.70;99.90
60868;DHT22;46702;48.370;10.794;2023-05-02T09:16:09;13.70;99.90
60868;DHT22;46702;48.370;10.794;2023-05-02T09:18:43;13.80;99.90
60868;DHT22;46702;48.370;10.794;2023-05-02T09:21:39;14.10;99.90
60868;DHT22;46702;48.370;10.794;2023-05-02T09:24:16;13.90;99.90
60868;DHT22;46702;48.370;10.794;2023-05-02T09:27:04;13.80;99.90
60868;DHT22;46702;48.370;10.794;2023-05-02T09:29:31;13.80;99.90
60868;DHT22;46702;48.370;10.794;2023-05-02T09:32:02;13.90;99.90
60868;DHT22;46702;48.370;10.794;2023-05-02T09:34:28;14.00;99.90
60868;DHT22;46702;48.370;10.794;2023-05-02T09:36:55;14.30;99.90
60868;DHT22;46702;48.370;10.794;2023-05-02T09:39:24;14.50;99.90
60868;DHT22;46702;48.370;10.794;2023-05-02T09:41:50;14.70;99.90
60868;DHT22;46702;48.370;10.794;2023-05-02T09:44:18;14.50;99.90
60868;DHT22;46702;48.370;10.794;2023-05-02T09:46:50;14.40;99.90
60868;DHT22;46702;48.370;10.794;2023-05-02T09:49:17;14.30;99.90
60868;DHT22;46702;48.370;10.794;2023-05-02T09:51:46;14.20;99.90
60868;DHT22;46702;48.370;10.794;2023-05-02T09:54:13;14.10;99.90
60868;DHT22;46702;48.370;10.794;2023-05-02T09:56:55;14.20;99.90
60868;DHT22;46702;48.370;10.794;2023-05-02T09:59:21;14.30;99.90
60868;DHT22;46702;48.370;10.794;2023-05-02T10:01:55;14.30;99.90
60868;DHT22;46702;48.370;10.794;2023-05-02T10:04:21;14.30;99.90
60868;DHT22;46702;48.370;10.794;2023-05-02T10:06:50;14.10;99.90
60868;DHT22;46702;48.370;10.794;2023-05-02T10:09:25;13.80;99.90
60868;DHT22;46702;48.370;10.794;2023-05-02T10:12:00;13.90;99.90
60868;DHT22;46702;48.370;10.794;2023-05-02T10:14:40;13.90;99.90
60868;DHT22;46702;48.370;10.794;2023-05-02T10:22:25;13.90;99.90
60868;DHT22;46702;48.370;10.794;2023-05-02T10:24:55;13.90;99.90
60868;DHT22;46702;48.370;10.794;2023-05-02T10:27:28;13.90;99.90
60868;DHT22;46702;48.370;10.794;2023-05-02T10:30:05;14.10;99.90
60868;DHT22;46702;48.370;10.794;2023-05-02T10:32:40;14.10;99.90
60868;DHT22;46702;48.370;10.794;2023-05-02T10:35:11;14.00;99.90
60868;DHT22;46702;48.370;10.794;2023-05-02T10:37:38;14.10;99.90
60868;DHT22;46702;48.370;10.794;2023-05-02T10:42:54;14.60;99.90
60868;DHT22;46702;48.370;10.794;2023-05-02T10:45:39;14.40;99.90
60868;DHT22;46702;48.370;10.794;2023-05-02T10:51:27;14.70;99.90
60868;DHT22;46702;48.370;10.794;2023-05-02T10:54:23;14.80;99.90
60868;DHT22;46702;48.370;10.794;2023-05-02T10:59:42;15.80;99.90
60868;DHT22;46702;48.370;10.794;2023-05-02T11:04:59;15.30;99.90
60868;DHT22;46702;48.370;10.794;2023-05-02T11:07:34;14.70;99.90
60868;DHT22;46702;48.370;10.794;2023-05-02T11:12:48;15.40;99.90
60868;DHT22;46702;48.370;10.794;2023-05-02T11:15:21;15.60;99.90
60868;DHT22;46702;48.370;10.794;2023-05-02T11:20:32;15.40;99.90
60868;DHT22;46702;48.370;10.794;2023-05-02T11:25:57;15.40;99.90
60868;DHT22;46702;48.370;10.794;2023-05-02T11:31:04;15.40;99.90
60868;DHT22;46702;48.370;10.794;2023-05-02T11:33:30;15.30;99.90
60868;DHT22;46702;48.370;10.794;2023-05-02T11:35:56;15.20;99.90
60868;DHT22;46702;48.370;10.794;2023-05-02T11:38:24;15.10;99.90
60868;DHT22;46702;48.370;10.794;2023-05-02T11:40:55;15.00;99.90
60868;DHT22;46702;48.370;10.794;2023-05-02T11:43:22;15.00;99.90
60868;DHT22;46702;48.370;10.794;2023-05-02T11:45:49;15.00;99.90
60868;DHT22;46702;48.370;10.794;2023-05-02T11:48:17;15.00;99.90
60868;DHT22;46702;48.370;10.794;2023-05-02T11:53:15;15.40;99.90
60868;DHT22;46702;48.370;10.794;2023-05-02T11:55:48;15.60;99.90
60868;DHT22;46702;48.370;10.794;2023-05-02T11:58:17;15.50;99.90
60868;DHT22;46702;48.370;10.794;2023-05-02T12:00:43;15.90;99.90
60868;DHT22;46702;48.370;10.794;2023-05-02T12:05:46;16.60;99.90
60868;DHT22;46702;48.370;10.794;2023-05-02T12:08:27;17.00;99.90
60868;DHT22;46702;48.370;10.794;2023-05-02T12:10:55;17.00;99.90
60868;DHT22;46702;48.370;10.794;2023-05-02T12:13:23;17.50;99.90
60868;DHT22;46702;48.370;10.794;2023-05-02T12:15:50;17.60;99.90
60868;DHT22;46702;48.370;10.794;2023-05-02T12:18:16;17.90;99.90
60868;DHT22;46702;48.370;10.794;2023-05-02T12:20:44;17.50;99.90
60868;DHT22;46702;48.370;10.794;2023-05-02T12:23:09;17.30;99.90
60868;DHT22;46702;48.370;10.794;2023-05-02T12:25:40;16.40;99.90
60868;DHT22;46702;48.370;10.794;2023-05-02T12:28:06;16.20;99.90
60868;DHT22;46702;48.370;10.794;2023-05-02T12:30:32;16.10;99.90
60868;DHT22;46702;48.370;10.794;2023-05-02T12:32:59;16.30;99.90
60868;DHT22;46702;48.370;10.794;2023-05-02T12:35:29;16.60;99.90
60868;DHT22;46702;48.370;10.794;2023-05-02T12:40:48;17.60;99.90
60868;DHT22;46702;48.370;10.794;2023-05-02T12:43:15;17.50;99.90
60868;DHT22;46702;48.370;10.794;2023-05-02T12:45:41;17.70;98.30
60868;DHT22;46702;48.370;10.794;2023-05-02T12:48:26;17.60;93.80
60868;DHT22;46702;48.370;10.794;2023-05-02T12:50:53;17.90;93.20
60868;DHT22;46702;48.370;10.794;2023-05-02T12:53:40;18.10;94.60
60868;DHT22;46702;48.370;10.794;2023-05-02T12:56:07;17.70;95.60
60868;DHT22;46702;48.370;10.794;2023-05-02T12:58:44;18.10;94.60
60868;DHT22;46702;48.370;10.794;2023-05-02T13:01:10;17.70;99.90
60868;DHT22;46702;48.370;10.794;2023-05-02T13:03:37;17.10;99.90
60868;DHT22;46702;48.370;10.794;2023-05-02T13:06:03;17.00;99.90
60868;DHT22;46702;48.370;10.794;2023-05-02T13:08:30;16.80;99.90
60868;DHT22;46702;48.370;10.794;2023-05-02T13:10:56;16.60;99.90
60868;DHT22;46702;48.370;10.794;2023-05-02T13:13:22;16.30;99.30
60868;DHT22;46702;48.370;10.794;2023-05-02T13:15:47;16.00;99.00
60868;DHT22;46702;48.370;10.794;2023-05-02T13:18:13;16.20;99.90
60868;DHT22;46702;48.370;10.794;2023-05-02T13:20:39;16.30;99.90
60868;DHT22;46702;48.370;10.794;2023-05-02T13:23:05;16.20;99.90
60868;DHT22;46702;48.370;10.794;2023-05-02T13:25:31;16.00;99.90
60868;DHT22;46702;48.370;10.794;2023-05-02T13:27:57;15.90;99.90
60868;DHT22;46702;48.370;10.794;2023-05-02T13:30:23;16.00;99.90
60868;DHT22;46702;48.370;10.794;2023-05-02T13:32:49;16.10;99.90
60868;DHT22;46702;48.370;10.794;2023-05-02T13:35:14;16.10;99.90
60868;DHT22;46702;48.370;10.794;2023-05-02T13:37:41;16.30;99.90
60868;DHT22;46702;48.370;10.794;2023-05-02T13:40:07;16.40;99.90
60868;DHT22;46702;48.370;10.794;2023-05-02T13:42:33;16.40;99.90
60868;DHT22;46702;48.370;10.794;2023-05-02T13:44:59;16.50;99.90
60868;DHT22;46702;48.370;10.794;2023-05-02T13:47:27;16.30;99.90
60868;DHT22;46702;48.370;10.794;2023-05-02T13:49:52;16.00;99.90
60868;DHT22;46702;48.370;10.794;2023-05-02T13:52:18;15.80;99.90
60868;DHT22;46702;48.370;10.794;2023-05-02T13:54:44;16.00;99.90
60868;DHT22;46702;48.370;10.794;2023-05-02T13:57:09;16.50;99.90
60868;DHT22;46702;48.370;10.794;2023-05-02T13:59:36;16.90;96.70
60868;DHT22;46702;48.370;10.794;2023-05-02T14:02:01;16.80;98.20
60868;DHT22;46702;48.370;10.794;2023-05-02T14:04:27;16.70;98.10
60868;DHT22;46702;48.370;10.794;2023-05-02T14:06:53;16.50;99.90
60868;DHT22;46702;48.370;10.794;2023-05-02T14:09:18;16.10;99.90
60868;DHT22;46702;48.370;10.794;2023-05-02T14:11:45;15.90;99.90
60868;DHT22;46702;48.370;10.794;2023-05-02T14:14:12;16.10;99.90
60868;DHT22;46702;48.370;10.794;2023-05-02T14:16:38;16.30;99.90
60868;DHT22;46702;48.370;10.794;2023-05-02T14:19:04;16.40;99.90
60868;DHT22;46702;48.370;10.794;2023-05-02T14:21:30;16.60;99.90
60868;DHT22;46702;48.370;10.794;2023-05-02T14:23:56;16.50;99.90
60868;DHT22;46702;48.370;10.794;2023-05-02T14:26:22;16.60;99.90
60868;DHT22;46702;48.370;10.794;2023-05-02T14:28:48;16.40;99.90
60868;DHT22;46702;48.370;10.794;2023-05-02T14:31:13;16.30;99.90
60868;DHT22;46702;48.370;10.794;2023-05-02T14:33:39;16.70;99.90
60868;DHT22;46702;48.370;10.794;2023-05-02T14:36:05;17.00;98.60
60868;DHT22;46702;48.370;10.794;2023-05-02T14:38:31;17.40;92.30
60868;DHT22;46702;48.370;10.794;2023-05-02T14:40:56;17.50;95.80
60868;DHT22;46702;48.370;10.794;2023-05-02T14:43:22;17.20;96.90
60868;DHT22;46702;48.370;10.794;2023-05-02T14:45:48;16.80;92.30
60868;DHT22;46702;48.370;10.794;2023-05-02T14:48:14;16.50;99.90
60868;DHT22;46702;48.370;10.794;2023-05-02T14:50:42;16.10;98.30
60868;DHT22;46702;48.370;10.794;2023-05-02T14:53:07;15.80;99.10
60868;DHT22;46702;48.370;10.794;2023-05-02T14:55:36;15.30;99.90
60868;DHT22;46702;48.370;10.794;2023-05-02T14:58:04;15.10;99.90
60868;DHT22;46702;48.370;10.794;2023-05-02T15:00:32;15.30;99.90
60868;DHT22;46702;48.370;10.794;2023-05-02T15:02:58;15.20;99.90
60868;DHT22;46702;48.370;10.794;2023-05-02T15:05:23;14.70;99.90
60868;DHT22;46702;48.370;10.794;2023-05-02T15:07:49;14.50;99.90
60868;DHT22;46702;48.370;10.794;2023-05-02T15:10:15;14.40;99.90
60868;DHT22;46702;48.370;10.794;2023-05-02T15:12:41;14.30;99.90
60868;DHT22;46702;48.370;10.794;2023-05-02T15:15:08;14.40;99.90
60868;DHT22;46702;48.370;10.794;2023-05-02T15:17:33;14.60;99.90
60868;DHT22;46702;48.370;10.794;2023-05-02T15:19:59;14.70;99.90
60868;DHT22;46702;48.370;10.794;2023-05-02T15:22:24;14.70;99.90
60868;DHT22;46702;48.370;10.794;2023-05-02T15:24:51;14.70;99.90
60868;DHT22;46702;48.370;10.794;2023-05-02T15:27:16;14.70;99.90
60868;DHT22;46702;48.370;10.794;2023-05-02T15:29:42;14.60;99.90
60868;DHT22;46702;48.370;10.794;2023-05-02T15:32:07;14.50;99.90
60868;DHT22;46702;48.370;10.794;2023-05-02T15:34:33;14.40;99.90
60868;DHT22;46702;48.370;10.794;2023-05-02T15:36:59;14.40;99.90
60868;DHT22;46702;48.370;10.794;2023-05-02T15:39:25;14.40;99.90
60868;DHT22;46702;48.370;10.794;2023-05-02T15:41:52;14.40;99.90
60868;DHT22;46702;48.370;10.794;2023-05-02T15:44:17;14.50;99.90
60868;DHT22;46702;48.370;10.794;2023-05-02T15:46:43;14.40;99.90
60868;DHT22;46702;48.370;10.794;2023-05-02T15:49:11;14.30;99.90
60868;DHT22;46702;48.370;10.794;2023-05-02T15:51:37;14.20;99.90
60868;DHT22;46702;48.370;10.794;2023-05-02T15:54:03;14.20;99.90
60868;DHT22;46702;48.370;10.794;2023-05-02T15:56:31;14.10;99.90
60868;DHT22;46702;48.370;10.794;2023-05-02T15:58:57;14.20;99.90
60868;DHT22;46702;48.370;10.794;2023-05-02T16:01:22;14.30;99.90
60868;DHT22;46702;48.370;10.794;2023-05-02T16:03:48;14.40;99.90
60868;DHT22;46702;48.370;10.794;2023-05-02T16:06:14;14.40;99.90
60868;DHT22;46702;48.370;10.794;2023-05-02T16:08:41;14.50;99.90
60868;DHT22;46702;48.370;10.794;2023-05-02T16:11:07;14.60;99.90
60868;DHT22;46702;48.370;10.794;2023-05-02T16:13:32;14.70;99.90
60868;DHT22;46702;48.370;10.794;2023-05-02T16:15:58;14.70;99.90
60868;DHT22;46702;48.370;10.794;2023-05-02T16:18:24;14.50;99.90
60868;DHT22;46702;48.370;10.794;2023-05-02T16:20:53;14.30;99.90